DLH5MK GVAC-EDDV
Flight info
| Callsign | DLH5MK |
|---|---|
| Flight time | N/A |
| Altitude | 37000 |
| Route | DIMKI1A DIMKI IPERA N873 GDV VASTO NIDEB TIGGI ULVOT NEVUD EMPAD AIREZ INBOM BALNO LOTEE AZFIC UN741 NTS GONEK TABOV UN858 OQQAL RANUX VALEK LUTAX DIK ARCKY IBESA HMM M170 ZEPHE T463 NIE |
| Aircraft | A333/H-SDE3GHIJ2J3J5M1RVWXY/LB2D1 |
Departure
| Time | 2026-04-21 10:42 |
|---|---|
| Airport | Amílcar Cabral International Airport (GVAC) |
Arrival
| Time | N/A |
|---|---|
| Airport | Hannover Airport (EDDV) |
| Time | Latitude | Longitude | Altitude | Speed | Heading |
|---|---|---|---|---|---|
| 2026-04-21 10:20 | 16.73433 | -22.94502 | 185 ft | 0 kts | 89° |
| 2026-04-21 10:35 | 16.73432 | -22.94510 | 185 ft | 3 kts | 89° |
| 2026-04-21 10:35 | 16.73432 | -22.94529 | 201 ft | 3 kts | 89° |
| 2026-04-21 10:35 | 16.73432 | -22.94548 | 201 ft | 3 kts | 89° |
| 2026-04-21 10:35 | 16.73433 | -22.94567 | 201 ft | 3 kts | 102° |
| 2026-04-21 10:36 | 16.73439 | -22.94586 | 201 ft | 3 kts | 135° |
| 2026-04-21 10:36 | 16.73455 | -22.94596 | 201 ft | 1 kts | 179° |
| 2026-04-21 10:37 | 16.73426 | -22.94595 | 200 ft | 8 kts | 178° |
| 2026-04-21 10:38 | 16.73336 | -22.94600 | 198 ft | 17 kts | 188° |
| 2026-04-21 10:38 | 16.73188 | -22.94607 | 190 ft | 23 kts | 180° |
| 2026-04-21 10:38 | 16.73081 | -22.94623 | 192 ft | 11 kts | 217° |
| 2026-04-21 10:38 | 16.73038 | -22.94679 | 193 ft | 9 kts | 224° |
| 2026-04-21 10:39 | 16.72988 | -22.94692 | 191 ft | 7 kts | 180° |
| 2026-04-21 10:39 | 16.72939 | -22.94692 | 186 ft | 7 kts | 179° |
| 2026-04-21 10:39 | 16.72878 | -22.94691 | 201 ft | 11 kts | 179° |
| 2026-04-21 10:39 | 16.72776 | -22.94688 | 197 ft | 19 kts | 179° |
| 2026-04-21 10:40 | 16.72620 | -22.94684 | 193 ft | 26 kts | 179° |
| 2026-04-21 10:40 | 16.72462 | -22.94685 | 198 ft | 13 kts | 186° |
| 2026-04-21 10:40 | 16.72410 | -22.94731 | 190 ft | 7 kts | 262° |
| 2026-04-21 10:40 | 16.72408 | -22.94789 | 186 ft | 9 kts | 270° |
| 2026-04-21 10:41 | 16.72417 | -22.94860 | 186 ft | 10 kts | 294° |
| 2026-04-21 10:41 | 16.72459 | -22.94888 | 191 ft | 3 kts | 360° |
| 2026-04-21 10:41 | 16.72488 | -22.94887 | 184 ft | 5 kts | 1° |
| 2026-04-21 10:41 | 16.72583 | -22.94886 | 190 ft | 42 kts | 0° |
| 2026-04-21 10:42 | 16.73157 | -22.94888 | 201 ft | 121 kts | 359° |
| 2026-04-21 10:42 | 16.74224 | -22.94895 | 310 ft | 179 kts | 1° |
| 2026-04-21 10:42 | 16.75112 | -22.94903 | 571 ft | 206 kts | 1° |
| 2026-04-21 10:42 | 16.76674 | -22.94915 | 1280 ft | 229 kts | 359° |
| 2026-04-21 10:43 | 16.78278 | -22.94928 | 2133 ft | 235 kts | 0° |
| 2026-04-21 10:43 | 16.79953 | -22.94940 | 2837 ft | 244 kts | 359° |
| 2026-04-21 10:43 | 16.81656 | -22.94952 | 3738 ft | 246 kts | 358° |
| 2026-04-21 10:43 | 16.83406 | -22.94965 | 4424 ft | 258 kts | 356° |
| 2026-04-21 10:44 | 16.85258 | -22.94981 | 5035 ft | 272 kts | 356° |
| 2026-04-21 10:44 | 16.87177 | -22.94996 | 5780 ft | 279 kts | 355° |
| 2026-04-21 10:44 | 16.89130 | -22.95010 | 6597 ft | 282 kts | 355° |
| 2026-04-21 10:44 | 16.91119 | -22.94886 | 7356 ft | 292 kts | 5° |
| 2026-04-21 10:45 | 16.93083 | -22.94242 | 8158 ft | 303 kts | 22° |
| 2026-04-21 10:45 | 16.94911 | -22.93093 | 8996 ft | 310 kts | 31° |
| 2026-04-21 10:45 | 16.96706 | -22.91794 | 9845 ft | 317 kts | 32° |
| 2026-04-21 10:45 | 16.98542 | -22.90446 | 10427 ft | 331 kts | 32° |
| 2026-04-21 10:46 | 17.00468 | -22.89040 | 10741 ft | 353 kts | 32° |
| 2026-04-21 10:46 | 17.02524 | -22.87546 | 11217 ft | 366 kts | 32° |
| 2026-04-21 10:46 | 17.04643 | -22.86010 | 11889 ft | 373 kts | 32° |
| 2026-04-21 10:46 | 17.06780 | -22.84460 | 12657 ft | 376 kts | 32° |
| 2026-04-21 10:47 | 17.08947 | -22.82891 | 13447 ft | 380 kts | 32° |
| 2026-04-21 10:47 | 17.11135 | -22.81309 | 14140 ft | 384 kts | 32° |
| 2026-04-21 10:47 | 17.13339 | -22.79715 | 14823 ft | 386 kts | 32° |
| 2026-04-21 10:47 | 17.15551 | -22.78115 | 15476 ft | 388 kts | 31° |
| 2026-04-21 10:48 | 17.17783 | -22.76500 | 15902 ft | 390 kts | 31° |
| 2026-04-21 10:48 | 17.20023 | -22.74879 | 16014 ft | 392 kts | 31° |
| 2026-04-21 10:48 | 17.22272 | -22.73252 | 16151 ft | 394 kts | 32° |
| 2026-04-21 10:48 | 17.24502 | -22.71637 | 16698 ft | 397 kts | 31° |
| 2026-04-21 10:49 | 17.26772 | -22.69993 | 17442 ft | 397 kts | 31° |
| 2026-04-21 10:49 | 17.29048 | -22.68345 | 18115 ft | 399 kts | 31° |
| 2026-04-21 10:49 | 17.31335 | -22.66688 | 18695 ft | 401 kts | 31° |
| 2026-04-21 10:49 | 17.33645 | -22.65014 | 19227 ft | 404 kts | 31° |
| 2026-04-21 10:50 | 17.35964 | -22.63333 | 19763 ft | 406 kts | 31° |
| 2026-04-21 10:50 | 17.38294 | -22.61644 | 20289 ft | 409 kts | 30° |
| 2026-04-21 10:50 | 17.40641 | -22.59941 | 20811 ft | 411 kts | 30° |
| 2026-04-21 10:50 | 17.43003 | -22.58227 | 21340 ft | 414 kts | 30° |
| 2026-04-21 10:51 | 17.45375 | -22.56505 | 21845 ft | 416 kts | 30° |
| 2026-04-21 10:51 | 17.47762 | -22.54773 | 22348 ft | 419 kts | 29° |
| 2026-04-21 10:51 | 17.50139 | -22.53047 | 22830 ft | 422 kts | 29° |
| 2026-04-21 10:51 | 17.52558 | -22.51289 | 23344 ft | 424 kts | 29° |
| 2026-04-21 10:52 | 17.54990 | -22.49521 | 23786 ft | 426 kts | 29° |
| 2026-04-21 10:52 | 17.57442 | -22.47739 | 24151 ft | 429 kts | 28° |
| 2026-04-21 10:52 | 17.59901 | -22.45951 | 24513 ft | 433 kts | 28° |
| 2026-04-21 10:52 | 17.62382 | -22.44146 | 24881 ft | 435 kts | 28° |
| 2026-04-21 10:53 | 17.64882 | -22.42327 | 25248 ft | 438 kts | 28° |
| 2026-04-21 10:53 | 17.67389 | -22.40501 | 25604 ft | 440 kts | 28° |
| 2026-04-21 10:53 | 17.69912 | -22.38663 | 25964 ft | 443 kts | 28° |
| 2026-04-21 10:53 | 17.72452 | -22.36813 | 26319 ft | 445 kts | 28° |
| 2026-04-21 10:54 | 17.75006 | -22.34952 | 26672 ft | 448 kts | 28° |
| 2026-04-21 10:54 | 17.77570 | -22.33082 | 27023 ft | 450 kts | 28° |
| 2026-04-21 10:54 | 17.80152 | -22.31199 | 27376 ft | 453 kts | 27° |
| 2026-04-21 10:54 | 17.82747 | -22.29306 | 27706 ft | 456 kts | 27° |
| 2026-04-21 10:55 | 17.85365 | -22.27395 | 28020 ft | 459 kts | 27° |
| 2026-04-21 10:55 | 17.87988 | -22.25481 | 28354 ft | 461 kts | 27° |
| 2026-04-21 10:55 | 17.90675 | -22.23630 | 28685 ft | 461 kts | 24° |
| 2026-04-21 10:55 | 17.93384 | -22.21910 | 28991 ft | 461 kts | 22° |
| 2026-04-21 10:56 | 17.96167 | -22.20215 | 29295 ft | 463 kts | 22° |
| 2026-04-21 10:56 | 17.98973 | -22.18531 | 29594 ft | 465 kts | 22° |
| 2026-04-21 10:56 | 18.01792 | -22.16838 | 29894 ft | 468 kts | 22° |
| 2026-04-21 10:56 | 18.04618 | -22.15128 | 30172 ft | 471 kts | 22° |
| 2026-04-21 10:57 | 18.07457 | -22.13398 | 30399 ft | 473 kts | 22° |
| 2026-04-21 10:57 | 18.10316 | -22.11645 | 30618 ft | 476 kts | 22° |
| 2026-04-21 10:57 | 18.13185 | -22.09880 | 30858 ft | 479 kts | 22° |
| 2026-04-21 10:57 | 18.16064 | -22.08104 | 31038 ft | 482 kts | 22° |
| 2026-04-21 10:58 | 18.18974 | -22.06308 | 31258 ft | 485 kts | 22° |
| 2026-04-21 10:58 | 18.21887 | -22.04508 | 31483 ft | 487 kts | 22° |
| 2026-04-21 10:58 | 18.24817 | -22.02698 | 31703 ft | 489 kts | 22° |
| 2026-04-21 10:58 | 18.27759 | -22.00879 | 31907 ft | 491 kts | 22° |
| 2026-04-21 10:59 | 18.30719 | -21.99050 | 32131 ft | 494 kts | 22° |
| 2026-04-21 10:59 | 18.33689 | -21.97214 | 32394 ft | 495 kts | 22° |
| 2026-04-21 10:59 | 18.36653 | -21.95379 | 32701 ft | 494 kts | 22° |
| 2026-04-21 10:59 | 18.39618 | -21.93543 | 33002 ft | 495 kts | 22° |
| 2026-04-21 11:00 | 18.42586 | -21.91705 | 33278 ft | 495 kts | 21° |
| 2026-04-21 11:00 | 18.45546 | -21.89871 | 33598 ft | 495 kts | 21° |
| 2026-04-21 11:00 | 18.48477 | -21.88055 | 33898 ft | 495 kts | 21° |
| 2026-04-21 11:00 | 18.51496 | -21.86186 | 34093 ft | 498 kts | 21° |
| 2026-04-21 11:01 | 18.54444 | -21.84360 | 34340 ft | 498 kts | 21° |
| 2026-04-21 11:01 | 18.57418 | -21.82515 | 34625 ft | 497 kts | 21° |
| 2026-04-21 11:01 | 18.60402 | -21.80661 | 34928 ft | 496 kts | 21° |
| 2026-04-21 11:02 | 18.66326 | -21.76981 | 35521 ft | 493 kts | 21° |
| 2026-04-21 11:02 | 18.69298 | -21.75134 | 35781 ft | 493 kts | 21° |
| 2026-04-21 11:02 | 18.72247 | -21.73303 | 36032 ft | 493 kts | 21° |
| 2026-04-21 11:02 | 18.75201 | -21.71467 | 36279 ft | 492 kts | 21° |
| 2026-04-21 11:03 | 18.78155 | -21.69631 | 36528 ft | 492 kts | 21° |
| 2026-04-21 11:03 | 18.81108 | -21.67794 | 36769 ft | 492 kts | 21° |
| 2026-04-21 11:03 | 18.84051 | -21.65962 | 36997 ft | 492 kts | 21° |
| 2026-04-21 11:03 | 18.86977 | -21.64138 | 37046 ft | 487 kts | 21° |
| 2026-04-21 11:04 | 18.92777 | -21.60517 | 37033 ft | 482 kts | 21° |
| 2026-04-21 11:04 | 18.98545 | -21.56925 | 37031 ft | 482 kts | 21° |
| 2026-04-21 11:05 | 19.04288 | -21.53347 | 37046 ft | 482 kts | 21° |
| 2026-04-21 11:05 | 19.10065 | -21.49740 | 37034 ft | 482 kts | 21° |
| 2026-04-21 11:06 | 19.15845 | -21.46127 | 37029 ft | 482 kts | 21° |
| 2026-04-21 11:06 | 19.21603 | -21.42524 | 37036 ft | 480 kts | 21° |
| 2026-04-21 11:07 | 19.27351 | -21.38924 | 37035 ft | 480 kts | 21° |
| 2026-04-21 11:07 | 19.33105 | -21.35320 | 37036 ft | 480 kts | 21° |
| 2026-04-21 11:08 | 19.38814 | -21.31741 | 37035 ft | 480 kts | 21° |
| 2026-04-21 11:08 | 19.44566 | -21.28131 | 37033 ft | 480 kts | 21° |
| 2026-04-21 11:09 | 19.50312 | -21.24521 | 37058 ft | 480 kts | 21° |
| 2026-04-21 11:09 | 19.56067 | -21.20903 | 37031 ft | 480 kts | 20° |
| 2026-04-21 11:10 | 19.61813 | -21.17287 | 37031 ft | 480 kts | 20° |
| 2026-04-21 11:10 | 19.66001 | -21.14650 | 37032 ft | 480 kts | 20° |
| 2026-04-21 11:14 | 19.71026 | -21.11484 | 37026 ft | 479 kts | 20° |
| 2026-04-21 11:14 | 19.76726 | -21.07889 | 37030 ft | 479 kts | 20° |
| 2026-04-21 11:15 | 19.82465 | -21.04270 | 37032 ft | 479 kts | 20° |
| 2026-04-21 11:15 | 19.88195 | -21.00655 | 37032 ft | 479 kts | 20° |
| 2026-04-21 11:16 | 19.93917 | -20.97038 | 37017 ft | 478 kts | 20° |
| 2026-04-21 11:16 | 19.99641 | -20.93416 | 37032 ft | 478 kts | 20° |
| 2026-04-21 11:17 | 20.05359 | -20.89794 | 37034 ft | 478 kts | 20° |
| 2026-04-21 11:17 | 20.11081 | -20.86166 | 37015 ft | 478 kts | 20° |
| 2026-04-21 11:18 | 20.16796 | -20.82540 | 37024 ft | 478 kts | 20° |
| 2026-04-21 11:18 | 20.22494 | -20.78921 | 37023 ft | 478 kts | 20° |
| 2026-04-21 11:19 | 20.28198 | -20.75294 | 37033 ft | 477 kts | 20° |
| 2026-04-21 11:19 | 20.33955 | -20.71640 | 37023 ft | 486 kts | 20° |
| 2026-04-21 11:20 | 20.39802 | -20.67920 | 37020 ft | 489 kts | 20° |
| 2026-04-21 11:20 | 20.45639 | -20.64184 | 37020 ft | 489 kts | 20° |
| 2026-04-21 11:21 | 20.51466 | -20.60453 | 37024 ft | 489 kts | 20° |
| 2026-04-21 11:21 | 20.57301 | -20.56716 | 37024 ft | 488 kts | 20° |
| 2026-04-21 11:22 | 20.63127 | -20.52986 | 37025 ft | 488 kts | 20° |
| 2026-04-21 11:22 | 20.68922 | -20.49272 | 37019 ft | 488 kts | 20° |
| 2026-04-21 11:23 | 20.74745 | -20.45536 | 37022 ft | 488 kts | 20° |
| 2026-04-21 11:23 | 20.80567 | -20.41797 | 37017 ft | 488 kts | 20° |
| 2026-04-21 11:24 | 20.86392 | -20.38054 | 37019 ft | 488 kts | 20° |
| 2026-04-21 11:24 | 20.92224 | -20.34301 | 37017 ft | 488 kts | 20° |
| 2026-04-21 11:25 | 20.98013 | -20.30574 | 37018 ft | 488 kts | 20° |
| 2026-04-21 11:25 | 21.03832 | -20.26824 | 37018 ft | 488 kts | 20° |
| 2026-04-21 11:26 | 21.09653 | -20.23068 | 37018 ft | 488 kts | 20° |
| 2026-04-21 11:26 | 21.15480 | -20.19306 | 37018 ft | 489 kts | 20° |
| 2026-04-21 11:27 | 21.21301 | -20.15543 | 37048 ft | 489 kts | 19° |
| 2026-04-21 11:27 | 21.27117 | -20.11780 | 37019 ft | 488 kts | 19° |
| 2026-04-21 11:28 | 21.32931 | -20.08014 | 37018 ft | 487 kts | 19° |
| 2026-04-21 11:28 | 21.38730 | -20.04256 | 37012 ft | 487 kts | 19° |
| 2026-04-21 11:29 | 21.43562 | -20.01122 | 37015 ft | 487 kts | 19° |
| 2026-04-21 11:29 | 21.50314 | -19.96739 | 37018 ft | 487 kts | 19° |
| 2026-04-21 11:30 | 21.55139 | -19.93602 | 37050 ft | 488 kts | 19° |
| 2026-04-21 11:30 | 21.60954 | -19.89819 | 37012 ft | 487 kts | 18° |
| 2026-04-21 11:31 | 21.66749 | -19.86045 | 37012 ft | 486 kts | 18° |
| 2026-04-21 11:31 | 21.72540 | -19.82272 | 37013 ft | 487 kts | 18° |
| 2026-04-21 11:32 | 21.78326 | -19.78499 | 37020 ft | 487 kts | 18° |
| 2026-04-21 11:32 | 21.84120 | -19.74714 | 37019 ft | 486 kts | 18° |
| 2026-04-21 11:33 | 21.89899 | -19.70937 | 37031 ft | 486 kts | 18° |
| 2026-04-21 11:33 | 21.95642 | -19.67180 | 37010 ft | 486 kts | 18° |
| 2026-04-21 11:34 | 22.01424 | -19.63394 | 37010 ft | 486 kts | 18° |
| 2026-04-21 11:34 | 22.07204 | -19.59606 | 37011 ft | 486 kts | 18° |
| 2026-04-21 11:35 | 22.12985 | -19.55813 | 37009 ft | 486 kts | 18° |
| 2026-04-21 11:35 | 22.18768 | -19.52015 | 37011 ft | 486 kts | 18° |
| 2026-04-21 11:36 | 22.24504 | -19.48244 | 37025 ft | 486 kts | 17° |
| 2026-04-21 11:36 | 22.30274 | -19.44446 | 37011 ft | 485 kts | 17° |
| 2026-04-21 11:37 | 22.36036 | -19.40650 | 37016 ft | 484 kts | 17° |
| 2026-04-21 11:37 | 22.41789 | -19.36858 | 36997 ft | 485 kts | 17° |
| 2026-04-21 11:38 | 22.47549 | -19.33058 | 36995 ft | 485 kts | 17° |
| 2026-04-21 11:38 | 22.53305 | -19.29255 | 37012 ft | 485 kts | 17° |
| 2026-04-21 11:39 | 22.59027 | -19.25471 | 37015 ft | 484 kts | 17° |
| 2026-04-21 11:39 | 22.64766 | -19.21670 | 37011 ft | 483 kts | 17° |
| 2026-04-21 11:40 | 22.70502 | -19.17869 | 37010 ft | 483 kts | 17° |
| 2026-04-21 11:40 | 22.76230 | -19.14072 | 37010 ft | 483 kts | 17° |
| 2026-04-21 11:41 | 22.81972 | -19.10261 | 37009 ft | 483 kts | 17° |
| 2026-04-21 11:41 | 22.87706 | -19.06450 | 37009 ft | 483 kts | 17° |
| 2026-04-21 11:42 | 22.93437 | -19.02636 | 37011 ft | 482 kts | 16° |
| 2026-04-21 11:42 | 22.99154 | -18.98827 | 37010 ft | 481 kts | 16° |
| 2026-04-21 11:43 | 23.04823 | -18.95050 | 37006 ft | 481 kts | 16° |
| 2026-04-21 11:43 | 23.10524 | -18.91248 | 37006 ft | 481 kts | 16° |
| 2026-04-21 11:44 | 23.16230 | -18.87437 | 37006 ft | 481 kts | 16° |
| 2026-04-21 11:44 | 23.21942 | -18.83619 | 37008 ft | 481 kts | 16° |
| 2026-04-21 11:45 | 23.27647 | -18.79798 | 37002 ft | 480 kts | 15° |
| 2026-04-21 11:45 | 23.33291 | -18.76015 | 37004 ft | 479 kts | 15° |
| 2026-04-21 11:46 | 23.38974 | -18.72205 | 37004 ft | 479 kts | 15° |
| 2026-04-21 11:46 | 23.44658 | -18.68392 | 37005 ft | 479 kts | 15° |
| 2026-04-21 11:47 | 23.50331 | -18.64580 | 37004 ft | 479 kts | 15° |
| 2026-04-21 11:47 | 23.56007 | -18.60761 | 37004 ft | 479 kts | 15° |
| 2026-04-21 11:48 | 23.61693 | -18.56933 | 37005 ft | 479 kts | 16° |
| 2026-04-21 11:48 | 23.67343 | -18.53124 | 37004 ft | 479 kts | 16° |
| 2026-04-21 11:49 | 23.73011 | -18.49299 | 37004 ft | 480 kts | 16° |
| 2026-04-21 11:49 | 23.78692 | -18.45462 | 37004 ft | 480 kts | 16° |
| 2026-04-21 11:50 | 23.84370 | -18.41622 | 37002 ft | 479 kts | 15° |
| 2026-04-21 11:50 | 23.90038 | -18.37784 | 37013 ft | 479 kts | 15° |
| 2026-04-21 11:51 | 23.95687 | -18.33955 | 36999 ft | 478 kts | 15° |
| 2026-04-21 11:51 | 24.01347 | -18.30117 | 36999 ft | 478 kts | 15° |
| 2026-04-21 11:52 | 24.06997 | -18.26282 | 36999 ft | 478 kts | 15° |
| 2026-04-21 11:52 | 24.12619 | -18.22462 | 36999 ft | 478 kts | 15° |
| 2026-04-21 11:53 | 24.18266 | -18.18619 | 36999 ft | 478 kts | 15° |
| 2026-04-21 11:53 | 24.23918 | -18.14770 | 36995 ft | 478 kts | 15° |
| 2026-04-21 11:54 | 24.29558 | -18.10922 | 36997 ft | 477 kts | 15° |
| 2026-04-21 11:54 | 24.35194 | -18.07077 | 37004 ft | 477 kts | 16° |
| 2026-04-21 11:55 | 24.40825 | -18.03229 | 36994 ft | 476 kts | 16° |
| 2026-04-21 11:55 | 24.46423 | -17.99400 | 36993 ft | 476 kts | 16° |
| 2026-04-21 11:56 | 24.52052 | -17.95546 | 36993 ft | 476 kts | 16° |
| 2026-04-21 11:56 | 24.57685 | -17.91685 | 36997 ft | 476 kts | 17° |
| 2026-04-21 11:57 | 24.63299 | -17.87831 | 36990 ft | 475 kts | 17° |
| 2026-04-21 11:57 | 24.68873 | -17.84002 | 36990 ft | 475 kts | 17° |
| 2026-04-21 11:58 | 24.74476 | -17.80150 | 36991 ft | 475 kts | 17° |
| 2026-04-21 11:58 | 24.80084 | -17.76290 | 36991 ft | 475 kts | 17° |
| 2026-04-21 11:59 | 24.85698 | -17.72421 | 36988 ft | 475 kts | 18° |
| 2026-04-21 11:59 | 24.91299 | -17.68557 | 36979 ft | 474 kts | 19° |
| 2026-04-21 12:00 | 24.96880 | -17.64700 | 36982 ft | 473 kts | 19° |
| 2026-04-21 12:00 | 25.02462 | -17.60840 | 36987 ft | 473 kts | 19° |
| 2026-04-21 12:01 | 25.08006 | -17.57004 | 36983 ft | 473 kts | 19° |
| 2026-04-21 12:01 | 25.13582 | -17.53140 | 36982 ft | 473 kts | 19° |
| 2026-04-21 12:02 | 25.21962 | -17.47326 | 37002 ft | 474 kts | 20° |
| 2026-04-21 12:03 | 25.27528 | -17.43457 | 36985 ft | 473 kts | 20° |
| 2026-04-21 12:03 | 25.33102 | -17.39579 | 36999 ft | 473 kts | 20° |
| 2026-04-21 12:04 | 25.38637 | -17.35725 | 36989 ft | 473 kts | 20° |
| 2026-04-21 12:04 | 25.44204 | -17.31845 | 36985 ft | 473 kts | 20° |
| 2026-04-21 12:05 | 25.49760 | -17.27966 | 36982 ft | 473 kts | 20° |
| 2026-04-21 12:05 | 25.55336 | -17.24071 | 36990 ft | 475 kts | 21° |
| 2026-04-21 12:06 | 25.60996 | -17.20124 | 36989 ft | 486 kts | 21° |
| 2026-04-21 12:06 | 25.66739 | -17.16105 | 36983 ft | 489 kts | 22° |
| 2026-04-21 12:07 | 25.72479 | -17.12068 | 36975 ft | 488 kts | 22° |
| 2026-04-21 12:07 | 25.78227 | -17.08028 | 36973 ft | 488 kts | 22° |
| 2026-04-21 12:08 | 25.83959 | -17.04000 | 36979 ft | 488 kts | 22° |
| 2026-04-21 12:08 | 25.89656 | -16.99992 | 36979 ft | 487 kts | 23° |
| 2026-04-21 12:09 | 25.95376 | -16.95960 | 36977 ft | 486 kts | 23° |
| 2026-04-21 12:09 | 26.01082 | -16.91934 | 36978 ft | 481 kts | 23° |
| 2026-04-21 12:10 | 26.06675 | -16.87981 | 36977 ft | 478 kts | 23° |
| 2026-04-21 12:10 | 26.12284 | -16.84020 | 36977 ft | 478 kts | 23° |
| 2026-04-21 12:11 | 26.17899 | -16.80052 | 37004 ft | 478 kts | 23° |
| 2026-04-21 12:11 | 26.23503 | -16.76083 | 36974 ft | 476 kts | 24° |
| 2026-04-21 12:12 | 26.29086 | -16.72121 | 36977 ft | 476 kts | 24° |
| 2026-04-21 12:12 | 26.34671 | -16.68156 | 36980 ft | 476 kts | 24° |
| 2026-04-21 12:13 | 26.40259 | -16.64185 | 36973 ft | 477 kts | 24° |
| 2026-04-21 12:13 | 26.45847 | -16.60207 | 36971 ft | 477 kts | 24° |
| 2026-04-21 12:14 | 26.51411 | -16.56243 | 36974 ft | 476 kts | 24° |
| 2026-04-21 12:14 | 26.56982 | -16.52267 | 36971 ft | 474 kts | 24° |
| 2026-04-21 12:15 | 26.62545 | -16.48293 | 36971 ft | 474 kts | 24° |
| 2026-04-21 12:15 | 26.68107 | -16.44317 | 36971 ft | 474 kts | 24° |
| 2026-04-21 12:16 | 26.73672 | -16.40334 | 36969 ft | 474 kts | 24° |
| 2026-04-21 12:16 | 26.79229 | -16.36350 | 36971 ft | 474 kts | 24° |
| 2026-04-21 12:17 | 26.83853 | -16.33033 | 36974 ft | 475 kts | 25° |
| 2026-04-21 12:17 | 26.89423 | -16.29033 | 36969 ft | 476 kts | 25° |
| 2026-04-21 12:18 | 26.94977 | -16.25038 | 36969 ft | 476 kts | 25° |
| 2026-04-21 12:18 | 27.00549 | -16.21026 | 36971 ft | 476 kts | 25° |
| 2026-04-21 12:19 | 27.06121 | -16.17009 | 36966 ft | 476 kts | 25° |
| 2026-04-21 12:19 | 27.11693 | -16.12987 | 36967 ft | 476 kts | 25° |
| 2026-04-21 12:20 | 27.17262 | -16.08963 | 36962 ft | 475 kts | 25° |
| 2026-04-21 12:20 | 27.22810 | -16.04947 | 36959 ft | 474 kts | 25° |
| 2026-04-21 12:21 | 27.28363 | -16.00926 | 36956 ft | 474 kts | 25° |
| 2026-04-21 12:21 | 27.33912 | -15.96902 | 36963 ft | 475 kts | 26° |
| 2026-04-21 12:22 | 27.39445 | -15.92886 | 36968 ft | 477 kts | 26° |
| 2026-04-21 12:22 | 27.45021 | -15.88832 | 36983 ft | 477 kts | 26° |
| 2026-04-21 12:23 | 27.50586 | -15.84778 | 36960 ft | 475 kts | 26° |
| 2026-04-21 12:23 | 27.56138 | -15.80732 | 36955 ft | 475 kts | 26° |
| 2026-04-21 12:24 | 27.61699 | -15.76676 | 36949 ft | 475 kts | 26° |
| 2026-04-21 12:24 | 27.67246 | -15.72624 | 36949 ft | 475 kts | 26° |
| 2026-04-21 12:25 | 27.72795 | -15.68565 | 36950 ft | 475 kts | 26° |
| 2026-04-21 12:25 | 27.78338 | -15.64506 | 36958 ft | 474 kts | 27° |
| 2026-04-21 12:26 | 27.83837 | -15.60473 | 36937 ft | 475 kts | 27° |
| 2026-04-21 12:26 | 27.89386 | -15.56400 | 36948 ft | 475 kts | 27° |
| 2026-04-21 12:27 | 27.94940 | -15.52318 | 36936 ft | 475 kts | 27° |
| 2026-04-21 12:27 | 28.00479 | -15.48241 | 36941 ft | 475 kts | 27° |
| 2026-04-21 12:28 | 28.06026 | -15.44153 | 36939 ft | 475 kts | 27° |
| 2026-04-21 12:28 | 28.11561 | -15.40059 | 36939 ft | 474 kts | 28° |
| 2026-04-21 12:29 | 28.17076 | -15.35961 | 36944 ft | 474 kts | 28° |
| 2026-04-21 12:29 | 28.22589 | -15.31859 | 36946 ft | 473 kts | 28° |
| 2026-04-21 12:30 | 28.28058 | -15.27787 | 36946 ft | 473 kts | 28° |
| 2026-04-21 12:30 | 28.33563 | -15.23683 | 36946 ft | 473 kts | 28° |
| 2026-04-21 12:31 | 28.39068 | -15.19574 | 36985 ft | 473 kts | 28° |
| 2026-04-21 12:31 | 28.44560 | -15.15469 | 36957 ft | 470 kts | 28° |
| 2026-04-21 12:32 | 28.50017 | -15.11385 | 36958 ft | 469 kts | 28° |
| 2026-04-21 12:32 | 28.55473 | -15.07298 | 36959 ft | 469 kts | 28° |
| 2026-04-21 12:33 | 28.60924 | -15.03210 | 36954 ft | 469 kts | 28° |
| 2026-04-21 12:33 | 28.66375 | -14.99116 | 36956 ft | 469 kts | 28° |
| 2026-04-21 12:34 | 28.71783 | -14.95048 | 36961 ft | 469 kts | 28° |
| 2026-04-21 12:34 | 28.77214 | -14.90959 | 36962 ft | 469 kts | 29° |
| 2026-04-21 12:35 | 28.82674 | -14.86844 | 36957 ft | 471 kts | 29° |
| 2026-04-21 12:35 | 28.88138 | -14.82718 | 36957 ft | 471 kts | 29° |
| 2026-04-21 12:36 | 28.93602 | -14.78588 | 36952 ft | 471 kts | 29° |
| 2026-04-21 12:36 | 28.99060 | -14.74456 | 36952 ft | 471 kts | 29° |
| 2026-04-21 12:37 | 29.04521 | -14.70317 | 36952 ft | 469 kts | 29° |
| 2026-04-21 12:37 | 29.09935 | -14.66208 | 36953 ft | 468 kts | 29° |
| 2026-04-21 12:38 | 29.11056 | -14.65357 | 36953 ft | 468 kts | 29° |
| 2026-04-21 12:48 | 29.14689 | -14.62603 | 36948 ft | 471 kts | 29° |
| 2026-04-21 12:48 | 29.20103 | -14.58484 | 36950 ft | 469 kts | 29° |
| 2026-04-21 12:49 | 29.25542 | -14.54339 | 36948 ft | 471 kts | 29° |
| 2026-04-21 12:49 | 29.31022 | -14.50160 | 36946 ft | 474 kts | 29° |
| 2026-04-21 12:50 | 29.36497 | -14.45978 | 36946 ft | 472 kts | 29° |
| 2026-04-21 12:50 | 29.41961 | -14.41798 | 36944 ft | 471 kts | 29° |
| 2026-04-21 12:51 | 29.47414 | -14.37624 | 36944 ft | 471 kts | 29° |
| 2026-04-21 12:51 | 29.52831 | -14.33471 | 36941 ft | 471 kts | 29° |
| 2026-04-21 12:52 | 29.58282 | -14.29287 | 36938 ft | 471 kts | 30° |
| 2026-04-21 12:52 | 29.63725 | -14.25103 | 36944 ft | 471 kts | 30° |
| 2026-04-21 12:53 | 29.69164 | -14.20916 | 36940 ft | 469 kts | 30° |
| 2026-04-21 12:53 | 29.74625 | -14.16709 | 36935 ft | 474 kts | 30° |
| 2026-04-21 12:54 | 29.80117 | -14.12472 | 36935 ft | 476 kts | 30° |
| 2026-04-21 12:54 | 29.85610 | -14.08225 | 36936 ft | 475 kts | 30° |
| 2026-04-21 12:55 | 29.91068 | -14.04000 | 36933 ft | 475 kts | 30° |
| 2026-04-21 12:55 | 29.96556 | -13.99748 | 36933 ft | 475 kts | 30° |
| 2026-04-21 12:56 | 30.02041 | -13.95492 | 36930 ft | 475 kts | 30° |
| 2026-04-21 12:56 | 30.07527 | -13.91230 | 36930 ft | 475 kts | 30° |
| 2026-04-21 12:57 | 30.13009 | -13.86965 | 36927 ft | 475 kts | 30° |
| 2026-04-21 12:57 | 30.18502 | -13.82686 | 36929 ft | 478 kts | 30° |
| 2026-04-21 12:58 | 30.24038 | -13.78369 | 36928 ft | 480 kts | 30° |
| 2026-04-21 12:58 | 30.29531 | -13.74076 | 36925 ft | 479 kts | 30° |
| 2026-04-21 12:59 | 30.35041 | -13.69764 | 36925 ft | 478 kts | 30° |
| 2026-04-21 12:59 | 30.40576 | -13.65429 | 36925 ft | 478 kts | 30° |
| 2026-04-21 13:00 | 30.46085 | -13.61107 | 36925 ft | 478 kts | 30° |
| 2026-04-21 13:00 | 30.51661 | -13.56927 | 36920 ft | 475 kts | 26° |
| 2026-04-21 13:01 | 30.57399 | -13.53223 | 36921 ft | 473 kts | 24° |
| 2026-04-21 13:01 | 30.63183 | -13.49599 | 36919 ft | 472 kts | 24° |
| 2026-04-21 13:02 | 30.68999 | -13.45971 | 36916 ft | 476 kts | 24° |
| 2026-04-21 13:02 | 30.77761 | -13.40478 | 36918 ft | 477 kts | 24° |
| 2026-04-21 13:03 | 30.83600 | -13.36801 | 36907 ft | 477 kts | 24° |
| 2026-04-21 13:03 | 30.89442 | -13.33117 | 36927 ft | 476 kts | 24° |
| 2026-04-21 13:04 | 30.95232 | -13.29462 | 36924 ft | 476 kts | 24° |
| 2026-04-21 13:04 | 31.01068 | -13.25774 | 36907 ft | 476 kts | 24° |
| 2026-04-21 13:05 | 31.05908 | -13.22710 | 36922 ft | 476 kts | 24° |
| 2026-04-21 13:05 | 31.11734 | -13.19019 | 36919 ft | 476 kts | 24° |
| 2026-04-21 13:06 | 31.17542 | -13.15332 | 36909 ft | 473 kts | 24° |
| 2026-04-21 13:06 | 31.23325 | -13.11657 | 36914 ft | 474 kts | 24° |
| 2026-04-21 13:07 | 31.29143 | -13.07958 | 36915 ft | 478 kts | 24° |
| 2026-04-21 13:07 | 31.34960 | -13.04251 | 36907 ft | 478 kts | 24° |
| 2026-04-21 13:08 | 31.40809 | -13.00517 | 36914 ft | 478 kts | 25° |
| 2026-04-21 13:08 | 31.46642 | -12.96788 | 36905 ft | 477 kts | 25° |
| 2026-04-21 13:09 | 31.52468 | -12.93060 | 36905 ft | 476 kts | 25° |
| 2026-04-21 13:09 | 31.58281 | -12.89336 | 36899 ft | 476 kts | 25° |
| 2026-04-21 13:10 | 31.64100 | -12.85602 | 36904 ft | 476 kts | 25° |
| 2026-04-21 13:10 | 31.69914 | -12.81865 | 36911 ft | 476 kts | 25° |
| 2026-04-21 13:11 | 31.75718 | -12.78128 | 36897 ft | 474 kts | 25° |
| 2026-04-21 13:11 | 31.81500 | -12.74400 | 36898 ft | 477 kts | 25° |
| 2026-04-21 13:12 | 31.87352 | -12.70625 | 36897 ft | 480 kts | 25° |
| 2026-04-21 13:12 | 31.93209 | -12.66838 | 36897 ft | 480 kts | 25° |
| 2026-04-21 13:13 | 31.99023 | -12.63073 | 36915 ft | 480 kts | 25° |
| 2026-04-21 13:13 | 32.04859 | -12.59287 | 36898 ft | 477 kts | 25° |
| 2026-04-21 13:14 | 32.10662 | -12.55518 | 36892 ft | 476 kts | 25° |
| 2026-04-21 13:14 | 32.16465 | -12.51746 | 36872 ft | 476 kts | 25° |
| 2026-04-21 13:15 | 32.22264 | -12.47970 | 36896 ft | 476 kts | 25° |
| 2026-04-21 13:15 | 32.28057 | -12.44192 | 36908 ft | 476 kts | 25° |
| 2026-04-21 13:16 | 32.33830 | -12.40419 | 36879 ft | 472 kts | 25° |
| 2026-04-21 13:16 | 32.39618 | -12.36635 | 36894 ft | 478 kts | 25° |
| 2026-04-21 13:17 | 32.45444 | -12.32820 | 36895 ft | 480 kts | 25° |
| 2026-04-21 13:17 | 32.51287 | -12.28986 | 36892 ft | 479 kts | 25° |
| 2026-04-21 13:18 | 32.57093 | -12.25170 | 36889 ft | 479 kts | 25° |
| 2026-04-21 13:18 | 32.62909 | -12.21341 | 36885 ft | 477 kts | 25° |
| 2026-04-21 13:19 | 32.68713 | -12.17516 | 36881 ft | 477 kts | 25° |
| 2026-04-21 13:19 | 32.74511 | -12.13690 | 36886 ft | 477 kts | 25° |
| 2026-04-21 13:20 | 32.80316 | -12.09853 | 36886 ft | 477 kts | 25° |
| 2026-04-21 13:20 | 32.86072 | -12.06043 | 36884 ft | 477 kts | 25° |
| 2026-04-21 13:21 | 32.91906 | -12.02175 | 36887 ft | 479 kts | 25° |
| 2026-04-21 13:21 | 32.97837 | -11.98610 | 36879 ft | 480 kts | 19° |
| 2026-04-21 13:22 | 33.04005 | -11.95591 | 36882 ft | 479 kts | 18° |
| 2026-04-21 13:22 | 33.10209 | -11.92677 | 36881 ft | 479 kts | 17° |
| 2026-04-21 13:23 | 33.16416 | -11.89774 | 36881 ft | 478 kts | 17° |
| 2026-04-21 13:23 | 33.22599 | -11.86865 | 36878 ft | 477 kts | 17° |
| 2026-04-21 13:24 | 33.28779 | -11.83945 | 36879 ft | 477 kts | 18° |
| 2026-04-21 13:24 | 33.34957 | -11.81020 | 36877 ft | 477 kts | 18° |
| 2026-04-21 13:25 | 33.41126 | -11.78094 | 36888 ft | 476 kts | 18° |
| 2026-04-21 13:25 | 33.47268 | -11.75175 | 36878 ft | 473 kts | 18° |
| 2026-04-21 13:26 | 33.53363 | -11.72276 | 36877 ft | 472 kts | 18° |
| 2026-04-21 13:26 | 33.59435 | -11.69385 | 36869 ft | 472 kts | 18° |
| 2026-04-21 13:27 | 33.65538 | -11.66474 | 36870 ft | 472 kts | 18° |
| 2026-04-21 13:27 | 33.71630 | -11.63563 | 36870 ft | 470 kts | 18° |
| 2026-04-21 13:28 | 33.77699 | -11.60658 | 36593 ft | 468 kts | 18° |
| 2026-04-21 13:28 | 33.80730 | -11.59205 | 36069 ft | 465 kts | 18° |
| 2026-04-21 13:28 | 33.83706 | -11.57775 | 35889 ft | 457 kts | 18° |
| 2026-04-21 13:29 | 33.89571 | -11.54958 | 35868 ft | 456 kts | 17° |
| 2026-04-21 13:29 | 33.95466 | -11.52128 | 35870 ft | 455 kts | 17° |
| 2026-04-21 13:30 | 34.01325 | -11.49308 | 35868 ft | 452 kts | 17° |
| 2026-04-21 13:30 | 34.07154 | -11.46498 | 35864 ft | 451 kts | 17° |
| 2026-04-21 13:31 | 34.12988 | -11.43682 | 35866 ft | 451 kts | 17° |
| 2026-04-21 13:31 | 34.18820 | -11.40862 | 35865 ft | 451 kts | 17° |
| 2026-04-21 13:32 | 34.24610 | -11.38058 | 35856 ft | 450 kts | 17° |
| 2026-04-21 13:32 | 34.30410 | -11.35244 | 35869 ft | 449 kts | 17° |
| 2026-04-21 13:33 | 34.36200 | -11.32432 | 35866 ft | 449 kts | 17° |
| 2026-04-21 13:33 | 34.42029 | -11.29600 | 35846 ft | 455 kts | 17° |
| 2026-04-21 13:34 | 34.47961 | -11.26714 | 35860 ft | 460 kts | 17° |
| 2026-04-21 13:34 | 34.53883 | -11.23820 | 35855 ft | 458 kts | 17° |
| 2026-04-21 13:35 | 34.59797 | -11.20935 | 35852 ft | 457 kts | 17° |
| 2026-04-21 13:35 | 34.65669 | -11.18077 | 35856 ft | 457 kts | 17° |
| 2026-04-21 13:36 | 34.71579 | -11.15202 | 35856 ft | 457 kts | 17° |
| 2026-04-21 13:36 | 34.77481 | -11.12318 | 35855 ft | 457 kts | 17° |
| 2026-04-21 13:37 | 34.83363 | -11.09424 | 35854 ft | 456 kts | 17° |
| 2026-04-21 13:37 | 34.89206 | -11.06352 | 35853 ft | 458 kts | 21° |
| 2026-04-21 13:38 | 34.94902 | -11.02853 | 35848 ft | 458 kts | 22° |
| 2026-04-21 13:38 | 35.00577 | -10.99302 | 35867 ft | 459 kts | 22° |